Flight Track Log - Related Links

Times and Time Zones

All times are in EST time to prevent confusion due to time zone crossing. See the CFS657 flight status page for this flight to view local times or setup timezone preferences in your user account.

Time Position Orientation Groundspeed Altitude Reporting Facility
EST Latitude Longitude Course Direction KTS MPH feet Rate Location/Type
Tue 08:18:26 PM 48.1269 -123.4219 89° East 133 153 2,100  Level Seattle Center
Tue 08:19:02 PM 48.1275 -123.3883 89° East 135 155 2,500 791 Climbing Seattle Center
Tue 08:19:57 PM 48.1294 -123.3342 87° East 145 167 3,300 783 Climbing Seattle Center
Tue 08:20:57 PM 48.1253 -123.2733 96° East 144 166 4,000 744 Climbing Seattle Center
Tue 08:21:58 PM 48.1125 -123.2142 108° East 142 163 4,800 545 Climbing Seattle Center
Tue 08:22:58 PM 48.0958 -123.1569 114° Southeast 157 181 5,100 243 Climbing Seattle Center
Tue 08:23:12 PM 48.0944 -123.1431 99° East 158 182 5,100 -80 Level Seattle Center
Tue 08:24:13 PM 48.0817 -123.0739 105° East 172 198 5,000 -56 Descending Seattle Center
Tue 08:25:00 PM 48.0681 -123.0200 111° Southeast 176 203 5,000  Level Seattle Center
Tue 08:25:14 PM 48.0664 -123.0058 100° East 171 197 5,000  Level Seattle Center
Tue 08:26:00 PM 48.0550 -122.9508 107° East 161 185 5,000  Level Seattle Center
Tue 08:26:15 PM 48.0533 -122.9414 105° East 161 185 5,000  Level Seattle Center
Tue 08:27:07 PM 48.0406 -122.8861 109° East 153 176 5,000  Level Seattle Center
Tue 08:27:16 PM 48.0406 -122.8819 90° East 152 175 5,000  Level Seattle Center
Tue 08:27:53 PM 48.0306 -122.8361 108° East 154 177 5,000  Level Seattle Center
Tue 08:28:17 PM 48.0244 -122.8225 124° Southeast 153 176 5,000  Level Seattle Center
Tue 08:28:36 PM 48.0031 -122.8147 166° South 154 177 5,000 -98 Level Seattle Center
Tue 08:29:18 PM 47.9817 -122.7989 154° Southeast 159 183 4,900 -200 Descending Seattle Center
Tue 08:29:36 PM 47.9661 -122.7819 144° Southeast 170 196 4,800 -500 Descending Seattle Center
Tue 08:30:18 PM 47.9533 -122.7342 112° Southeast 167 192 4,400 -492 Descending Seattle Center
Tue 08:30:37 PM 47.9497 -122.7150 106° East 164 189 4,300 -393 Descending Seattle Center
Tue 08:31:19 PM 47.9394 -122.6689 108° East 166 191 4,000 -295 Descending Seattle Center
Tue 08:31:38 PM 47.9358 -122.6500 106° East 166 191 4,000  Level Seattle Center
Tue 08:32:20 PM 47.9247 -122.6047 110° East 164 189 4,000  Level Seattle Center
Tue 08:32:39 PM 47.9225 -122.5881 101° East 164 189 4,000  Level Seattle Center
Tue 08:33:21 PM 47.9122 -122.5397 108° East 163 188 4,000  Level Seattle Center
Tue 08:33:46 PM 47.9058 -122.5114 109° East 165 190 4,000  Level Seattle Center
Tue 08:34:22 PM 47.8981 -122.4753 108° East 164 189 4,000  Level Seattle Center
Tue 08:34:52 PM 47.8911 -122.4436 108° East 162 186 4,000  Level Seattle Center
Tue 08:35:23 PM 47.8833 -122.4114 110° East 163 188 4,000  Level Seattle Center
Tue 08:35:53 PM 47.8742 -122.3769 112° Southeast 163 188 4,000  Level Seattle Center
Tue 08:36:23 PM 47.8664 -122.3497 113° Southeast 161 185 4,000  Level Seattle Center
Tue 08:36:48 PM 47.8464 -122.3364 156° South 168 193 4,000  Level Seattle Center
Tue 08:37:24 PM 47.8250 -122.3167 148° Southeast 165 190 4,000  Level Seattle Center
Tue 08:37:49 PM 47.8017 -122.3181 182° South 166 191 4,000  Level Seattle Center
Tue 08:38:25 PM 47.7739 -122.3161 177° South 168 193 4,000  Level Seattle Center
Tue 08:38:50 PM 47.7569 -122.3167 181° South 166 191 4,000  Level Seattle Center
Tue 08:39:26 PM 47.7292 -122.3153 178° South 163 188 4,000  Level Seattle Center
Tue 08:39:56 PM 47.7056 -122.3156 180° South 163 188 4,000  Level Seattle Center
Tue 08:40:27 PM 47.6836 -122.3161 181° South 164 189 4,000  Level Seattle Center
Tue 08:40:57 PM 47.6614 -122.3167 181° South 167 192 4,000  Level Seattle Center
Tue 08:41:28 PM 47.6381 -122.3167 180° South 164 189 4,000 -436 Level Seattle Center
Tue 08:41:52 PM 47.6192 -122.3172 181° South 165 190 3,600 -1,100 Descending Seattle Center
Tue 08:42:28 PM 47.5906 -122.3161 178° South 172 198 2,900 -885 Descending Seattle Center
Tue 08:42:53 PM 47.5731 -122.3194 187° South 164 189 2,700 -787 Descending Seattle Center
Tue 08:43:29 PM 47.5472 -122.3178 178° South 158 182 2,100 -896 Descending Seattle Center
Tue 08:44:00 PM 47.5236 -122.3172 179° South 153 176 1,700 -885 Descending Seattle Center
Tue 08:44:30 PM 47.5000 -122.3178 181° South 158 182 1,200 -900 Descending Seattle Center
Tue 08:45:00 PM 47.4814 -122.3175 179° South 155 178 800 -590 Descending Seattle Center
Tue 08:45:31 PM 47.4692 -122.3181 182° South 95 109 600 -261 Descending Seattle Center
Tue 08:46:32 PM 47.4581 -122.3172 177° South 39 45 400 -98 Descending Seattle Center
Tue 08:47:33 PM 47.4581 -122.3153 90° East 32 37 400  Level Seattle Center

Login

Don't have an account? Register now (free) for customized features, flight alerts, and more!